sensor_id;sensor_type;location;lat;lon;timestamp;pressure;altitude;pressure_sealevel;temperature;humidity
61086;BME280;46967;48.876;2.136;2024-01-10T00:01:27;102361.41;;;23.73;14.41
61086;BME280;46967;48.876;2.136;2024-01-10T00:03:54;102365.44;;;23.79;14.45
61086;BME280;46967;48.876;2.136;2024-01-10T00:06:19;102358.28;;;23.66;14.14
61086;BME280;46967;48.876;2.136;2024-01-10T00:08:45;102368.56;;;23.71;14.29
61086;BME280;46967;48.876;2.136;2024-01-10T00:11:11;102363.25;;;23.57;14.24
61086;BME280;46967;48.876;2.136;2024-01-10T00:13:36;102356.63;;;23.35;14.60
61086;BME280;46967;48.876;2.136;2024-01-10T00:16:01;102358.72;;;23.44;14.54
61086;BME280;46967;48.876;2.136;2024-01-10T00:18:27;102371.38;;;23.54;14.23
61086;BME280;46967;48.876;2.136;2024-01-10T00:20:52;102363.00;;;23.17;14.53
61086;BME280;46967;48.876;2.136;2024-01-10T00:23:21;102364.44;;;23.22;14.45
61086;BME280;46967;48.876;2.136;2024-01-10T00:25:47;102362.09;;;23.02;14.61
61086;BME280;46967;48.876;2.136;2024-01-10T00:28:12;102359.25;;;22.74;14.99
61086;BME280;46967;48.876;2.136;2024-01-10T00:30:38;102359.03;;;22.93;15.10
61086;BME280;46967;48.876;2.136;2024-01-10T00:33:04;102362.56;;;22.30;15.30
61086;BME280;46967;48.876;2.136;2024-01-10T00:35:30;102359.69;;;22.97;15.03
61086;BME280;46967;48.876;2.136;2024-01-10T00:37:55;102354.47;;;23.11;14.71
61086;BME280;46967;48.876;2.136;2024-01-10T00:40:20;102351.94;;;22.94;14.78
61086;BME280;46967;48.876;2.136;2024-01-10T00:42:46;102349.69;;;22.56;15.06
61086;BME280;46967;48.876;2.136;2024-01-10T00:45:11;102352.75;;;23.10;15.04
61086;BME280;46967;48.876;2.136;2024-01-10T00:47:36;102346.75;;;23.23;14.82
61086;BME280;46967;48.876;2.136;2024-01-10T00:50:02;102349.03;;;22.98;14.78
61086;BME280;46967;48.876;2.136;2024-01-10T00:52:27;102342.91;;;23.28;14.87
61086;BME280;46967;48.876;2.136;2024-01-10T00:54:52;102358.22;;;23.07;14.88
61086;BME280;46967;48.876;2.136;2024-01-10T00:57:17;102353.16;;;23.19;14.75
61086;BME280;46967;48.876;2.136;2024-01-10T00:59:43;102347.84;;;22.88;15.13
61086;BME280;46967;48.876;2.136;2024-01-10T01:02:08;102343.03;;;23.11;14.76
61086;BME280;46967;48.876;2.136;2024-01-10T01:04:33;102350.25;;;23.07;14.72
61086;BME280;46967;48.876;2.136;2024-01-10T01:06:59;102342.00;;;23.13;14.90
61086;BME280;46967;48.876;2.136;2024-01-10T01:09:24;102343.16;;;23.24;14.83
61086;BME280;46967;48.876;2.136;2024-01-10T01:11:50;102342.25;;;23.09;14.77
61086;BME280;46967;48.876;2.136;2024-01-10T01:14:15;102331.13;;;23.18;14.90
61086;BME280;46967;48.876;2.136;2024-01-10T01:16:41;102336.19;;;23.37;14.64
61086;BME280;46967;48.876;2.136;2024-01-10T01:19:06;102338.00;;;23.51;14.46
61086;BME280;46967;48.876;2.136;2024-01-10T01:21:31;102333.44;;;23.39;14.79
61086;BME280;46967;48.876;2.136;2024-01-10T01:23:57;102334.25;;;23.25;14.89
61086;BME280;46967;48.876;2.136;2024-01-10T01:26:22;102336.94;;;23.39;14.47
61086;BME280;46967;48.876;2.136;2024-01-10T01:28:47;102334.97;;;23.28;14.59
61086;BME280;46967;48.876;2.136;2024-01-10T01:31:13;102334.78;;;23.31;14.72
61086;BME280;46967;48.876;2.136;2024-01-10T01:33:38;102339.91;;;23.49;14.45
61086;BME280;46967;48.876;2.136;2024-01-10T01:36:05;102333.91;;;23.45;14.66
61086;BME280;46967;48.876;2.136;2024-01-10T01:38:31;102337.16;;;23.50;14.56
61086;BME280;46967;48.876;2.136;2024-01-10T01:40:56;102334.88;;;23.44;14.39
61086;BME280;46967;48.876;2.136;2024-01-10T01:43:23;102339.28;;;23.29;14.63
61086;BME280;46967;48.876;2.136;2024-01-10T01:45:52;102340.28;;;23.57;14.51
61086;BME280;46967;48.876;2.136;2024-01-10T01:48:19;102333.94;;;23.60;14.49
61086;BME280;46967;48.876;2.136;2024-01-10T01:50:45;102333.00;;;23.61;14.51
61086;BME280;46967;48.876;2.136;2024-01-10T01:53:15;102333.16;;;23.43;14.68
61086;BME280;46967;48.876;2.136;2024-01-10T01:55:43;102335.94;;;23.56;14.83
61086;BME280;46967;48.876;2.136;2024-01-10T01:58:10;102343.13;;;23.83;14.41
61086;BME280;46967;48.876;2.136;2024-01-10T02:00:35;102343.31;;;23.80;14.42
61086;BME280;46967;48.876;2.136;2024-01-10T02:03:01;102334.34;;;23.68;14.37
61086;BME280;46967;48.876;2.136;2024-01-10T02:05:27;102338.09;;;23.78;14.04
61086;BME280;46967;48.876;2.136;2024-01-10T02:07:53;102336.53;;;24.04;14.21
61086;BME280;46967;48.876;2.136;2024-01-10T02:10:20;102328.66;;;23.88;14.09
61086;BME280;46967;48.876;2.136;2024-01-10T02:12:46;102327.25;;;23.97;14.33
61086;BME280;46967;48.876;2.136;2024-01-10T02:15:12;102322.50;;;23.88;14.11
61086;BME280;46967;48.876;2.136;2024-01-10T02:17:38;102331.38;;;23.73;14.33
61086;BME280;46967;48.876;2.136;2024-01-10T02:20:14;102328.53;;;23.76;14.39
61086;BME280;46967;48.876;2.136;2024-01-10T02:22:40;102324.94;;;23.62;14.44
61086;BME280;46967;48.876;2.136;2024-01-10T02:25:07;102321.22;;;23.36;14.29
61086;BME280;46967;48.876;2.136;2024-01-10T02:27:34;102319.38;;;23.52;14.37
61086;BME280;46967;48.876;2.136;2024-01-10T02:30:02;102323.56;;;23.85;14.23
61086;BME280;46967;48.876;2.136;2024-01-10T02:32:27;102317.84;;;23.63;14.35
61086;BME280;46967;48.876;2.136;2024-01-10T02:34:53;102319.97;;;23.86;14.41
61086;BME280;46967;48.876;2.136;2024-01-10T02:37:18;102323.53;;;23.71;14.40
61086;BME280;46967;48.876;2.136;2024-01-10T02:39:43;102317.09;;;23.75;14.44
61086;BME280;46967;48.876;2.136;2024-01-10T02:42:08;102322.22;;;23.93;14.31
61086;BME280;46967;48.876;2.136;2024-01-10T02:44:34;102326.03;;;23.15;14.78
61086;BME280;46967;48.876;2.136;2024-01-10T02:46:59;102321.28;;;23.50;14.64
61086;BME280;46967;48.876;2.136;2024-01-10T02:49:24;102324.91;;;23.19;14.95
61086;BME280;46967;48.876;2.136;2024-01-10T02:51:50;102323.78;;;23.38;14.60
61086;BME280;46967;48.876;2.136;2024-01-10T02:54:15;102318.72;;;23.63;14.53
61086;BME280;46967;48.876;2.136;2024-01-10T02:56:40;102315.47;;;23.29;14.64
61086;BME280;46967;48.876;2.136;2024-01-10T02:59:06;102313.00;;;23.41;14.58
61086;BME280;46967;48.876;2.136;2024-01-10T03:01:31;102308.22;;;22.87;14.94
61086;BME280;46967;48.876;2.136;2024-01-10T03:03:56;102314.16;;;23.37;14.68
61086;BME280;46967;48.876;2.136;2024-01-10T03:06:21;102308.03;;;23.50;14.52
61086;BME280;46967;48.876;2.136;2024-01-10T03:08:47;102307.16;;;23.50;14.47
61086;BME280;46967;48.876;2.136;2024-01-10T03:11:12;102307.06;;;23.51;14.40
61086;BME280;46967;48.876;2.136;2024-01-10T03:13:37;102305.31;;;23.22;14.64
61086;BME280;46967;48.876;2.136;2024-01-10T03:16:04;102305.41;;;23.20;14.79
61086;BME280;46967;48.876;2.136;2024-01-10T03:18:29;102310.44;;;23.39;14.74
61086;BME280;46967;48.876;2.136;2024-01-10T03:20:54;102301.63;;;23.10;14.84
61086;BME280;46967;48.876;2.136;2024-01-10T03:23:21;102303.75;;;23.48;14.59
61086;BME280;46967;48.876;2.136;2024-01-10T03:25:47;102302.41;;;23.55;14.46
61086;BME280;46967;48.876;2.136;2024-01-10T03:28:15;102297.53;;;23.49;14.63
61086;BME280;46967;48.876;2.136;2024-01-10T03:30:42;102302.22;;;23.44;14.65
61086;BME280;46967;48.876;2.136;2024-01-10T03:33:07;102299.59;;;23.58;14.55
61086;BME280;46967;48.876;2.136;2024-01-10T03:35:32;102294.09;;;23.76;14.51
61086;BME280;46967;48.876;2.136;2024-01-10T03:37:57;102294.38;;;23.71;14.35
61086;BME280;46967;48.876;2.136;2024-01-10T03:40:23;102298.63;;;23.30;14.46
61086;BME280;46967;48.876;2.136;2024-01-10T03:42:48;102285.97;;;23.64;14.40
61086;BME280;46967;48.876;2.136;2024-01-10T03:45:13;102291.00;;;23.83;14.30
61086;BME280;46967;48.876;2.136;2024-01-10T03:47:41;102295.34;;;23.56;14.56
61086;BME280;46967;48.876;2.136;2024-01-10T03:50:07;102290.59;;;23.90;14.14
61086;BME280;46967;48.876;2.136;2024-01-10T03:52:33;102297.44;;;23.65;14.49
61086;BME280;46967;48.876;2.136;2024-01-10T03:54:59;102293.16;;;23.91;14.33
61086;BME280;46967;48.876;2.136;2024-01-10T03:57:25;102289.84;;;23.73;14.04
61086;BME280;46967;48.876;2.136;2024-01-10T03:59:50;102299.19;;;23.79;14.32
61086;BME280;46967;48.876;2.136;2024-01-10T04:02:15;102295.44;;;23.97;14.49
61086;BME280;46967;48.876;2.136;2024-01-10T04:04:41;102296.66;;;23.48;14.63
61086;BME280;46967;48.876;2.136;2024-01-10T04:07:06;102301.75;;;23.66;14.24
61086;BME280;46967;48.876;2.136;2024-01-10T04:09:31;102300.16;;;23.49;14.62
61086;BME280;46967;48.876;2.136;2024-01-10T04:11:57;102298.47;;;23.48;14.42
61086;BME280;46967;48.876;2.136;2024-01-10T04:14:22;102294.47;;;22.96;14.51
61086;BME280;46967;48.876;2.136;2024-01-10T04:16:47;102291.19;;;23.07;14.50
61086;BME280;46967;48.876;2.136;2024-01-10T04:19:13;102288.03;;;23.30;14.51
61086;BME280;46967;48.876;2.136;2024-01-10T04:21:39;102294.31;;;22.83;14.81
61086;BME280;46967;48.876;2.136;2024-01-10T04:24:04;102285.94;;;23.21;14.56
61086;BME280;46967;48.876;2.136;2024-01-10T04:26:30;102292.94;;;23.22;14.45
61086;BME280;46967;48.876;2.136;2024-01-10T04:28:55;102286.03;;;23.34;14.51
61086;BME280;46967;48.876;2.136;2024-01-10T04:31:20;102278.75;;;23.52;14.19
61086;BME280;46967;48.876;2.136;2024-01-10T04:33:46;102274.34;;;23.52;14.21
61086;BME280;46967;48.876;2.136;2024-01-10T04:36:11;102269.97;;;23.66;14.31
61086;BME280;46967;48.876;2.136;2024-01-10T04:38:37;102274.31;;;23.96;13.87
61086;BME280;46967;48.876;2.136;2024-01-10T04:41:02;102271.75;;;23.94;14.33
61086;BME280;46967;48.876;2.136;2024-01-10T04:43:27;102267.09;;;23.98;14.10
61086;BME280;46967;48.876;2.136;2024-01-10T04:45:53;102268.50;;;24.18;13.89
61086;BME280;46967;48.876;2.136;2024-01-10T04:48:18;102275.31;;;24.08;13.70
61086;BME280;46967;48.876;2.136;2024-01-10T04:50:43;102277.38;;;24.17;13.97
61086;BME280;46967;48.876;2.136;2024-01-10T04:53:09;102269.28;;;24.33;13.74
61086;BME280;46967;48.876;2.136;2024-01-10T04:55:34;102260.59;;;24.31;13.57
61086;BME280;46967;48.876;2.136;2024-01-10T04:58:00;102261.75;;;24.54;13.65
61086;BME280;46967;48.876;2.136;2024-01-10T05:00:25;102258.59;;;24.62;13.51
61086;BME280;46967;48.876;2.136;2024-01-10T05:02:50;102258.50;;;24.63;13.86
61086;BME280;46967;48.876;2.136;2024-01-10T05:05:16;102256.72;;;24.76;13.51
61086;BME280;46967;48.876;2.136;2024-01-10T05:07:41;102253.97;;;24.91;13.43
61086;BME280;46967;48.876;2.136;2024-01-10T05:10:06;102255.47;;;24.95;13.28
61086;BME280;46967;48.876;2.136;2024-01-10T05:12:32;102260.38;;;25.01;13.19
61086;BME280;46967;48.876;2.136;2024-01-10T05:14:57;102255.16;;;25.12;13.43
61086;BME280;46967;48.876;2.136;2024-01-10T05:17:23;102261.44;;;25.11;13.27
61086;BME280;46967;48.876;2.136;2024-01-10T05:19:48;102258.03;;;25.09;13.51
61086;BME280;46967;48.876;2.136;2024-01-10T05:22:13;102251.53;;;25.26;13.12
61086;BME280;46967;48.876;2.136;2024-01-10T05:24:39;102247.75;;;25.30;13.20
61086;BME280;46967;48.876;2.136;2024-01-10T05:27:04;102250.91;;;25.48;13.10
61086;BME280;46967;48.876;2.136;2024-01-10T05:29:29;102247.38;;;25.61;12.96
61086;BME280;46967;48.876;2.136;2024-01-10T05:31:55;102248.34;;;25.60;13.04
61086;BME280;46967;48.876;2.136;2024-01-10T05:34:20;102244.50;;;25.64;13.02
61086;BME280;46967;48.876;2.136;2024-01-10T05:36:45;102251.00;;;25.47;13.10
61086;BME280;46967;48.876;2.136;2024-01-10T05:39:11;102242.00;;;25.37;12.94
61086;BME280;46967;48.876;2.136;2024-01-10T05:41:37;102246.03;;;25.42;12.98
61086;BME280;46967;48.876;2.136;2024-01-10T05:44:04;102247.66;;;25.32;13.11
61086;BME280;46967;48.876;2.136;2024-01-10T05:46:30;102251.25;;;25.31;13.14
61086;BME280;46967;48.876;2.136;2024-01-10T05:48:56;102246.00;;;24.91;13.21
61086;BME280;46967;48.876;2.136;2024-01-10T05:51:21;102250.41;;;24.65;13.48
61086;BME280;46967;48.876;2.136;2024-01-10T05:53:47;102246.50;;;24.70;13.30
61086;BME280;46967;48.876;2.136;2024-01-10T05:56:12;102243.16;;;24.54;13.35
61086;BME280;46967;48.876;2.136;2024-01-10T05:58:37;102253.00;;;23.83;13.98
61086;BME280;46967;48.876;2.136;2024-01-10T06:01:03;102245.44;;;23.77;14.04
61086;BME280;46967;48.876;2.136;2024-01-10T06:03:28;102244.13;;;24.26;13.46
61086;BME280;46967;48.876;2.136;2024-01-10T06:05:54;102248.97;;;24.46;13.73
61086;BME280;46967;48.876;2.136;2024-01-10T06:08:19;102249.13;;;24.03;13.63
61086;BME280;46967;48.876;2.136;2024-01-10T06:10:45;102248.91;;;24.20;13.78
61086;BME280;46967;48.876;2.136;2024-01-10T06:13:10;102246.78;;;24.26;13.55
61086;BME280;46967;48.876;2.136;2024-01-10T06:15:36;102247.53;;;24.28;13.56
61086;BME280;46967;48.876;2.136;2024-01-10T06:18:01;102251.47;;;24.08;13.76
61086;BME280;46967;48.876;2.136;2024-01-10T06:20:26;102251.19;;;24.39;13.65
61086;BME280;46967;48.876;2.136;2024-01-10T06:22:52;102242.13;;;24.29;13.68
61086;BME280;46967;48.876;2.136;2024-01-10T06:25:18;102246.03;;;23.53;14.10
61086;BME280;46967;48.876;2.136;2024-01-10T06:27:43;102245.50;;;24.04;13.63
61086;BME280;46967;48.876;2.136;2024-01-10T06:30:09;102242.56;;;24.36;13.39
61086;BME280;46967;48.876;2.136;2024-01-10T06:32:34;102238.81;;;24.26;13.60
61086;BME280;46967;48.876;2.136;2024-01-10T06:35:00;102239.75;;;23.97;13.75
61086;BME280;46967;48.876;2.136;2024-01-10T06:37:27;102241.84;;;24.47;13.31
61086;BME280;46967;48.876;2.136;2024-01-10T06:39:52;102249.41;;;24.53;13.38
61086;BME280;46967;48.876;2.136;2024-01-10T06:42:18;102249.97;;;24.58;13.30
61086;BME280;46967;48.876;2.136;2024-01-10T06:44:43;102232.81;;;24.76;13.17
61086;BME280;46967;48.876;2.136;2024-01-10T06:47:08;102241.44;;;24.53;13.14
61086;BME280;46967;48.876;2.136;2024-01-10T06:49:35;102239.69;;;24.66;13.11
61086;BME280;46967;48.876;2.136;2024-01-10T06:52:00;102240.50;;;24.54;12.97
61086;BME280;46967;48.876;2.136;2024-01-10T06:54:25;102233.41;;;24.00;13.16
61086;BME280;46967;48.876;2.136;2024-01-10T06:56:51;102240.84;;;23.37;13.32
61086;BME280;46967;48.876;2.136;2024-01-10T06:59:16;102242.44;;;23.54;13.26
61086;BME280;46967;48.876;2.136;2024-01-10T07:01:42;102245.84;;;23.56;13.35
61086;BME280;46967;48.876;2.136;2024-01-10T07:04:07;102248.66;;;23.67;13.16
61086;BME280;46967;48.876;2.136;2024-01-10T07:06:32;102249.13;;;23.88;13.18
61086;BME280;46967;48.876;2.136;2024-01-10T07:08:58;102248.19;;;23.90;13.29
61086;BME280;46967;48.876;2.136;2024-01-10T07:11:23;102246.09;;;24.36;13.16
61086;BME280;46967;48.876;2.136;2024-01-10T07:13:49;102259.03;;;24.41;13.19
61086;BME280;46967;48.876;2.136;2024-01-10T07:16:14;102253.84;;;24.39;13.16
61086;BME280;46967;48.876;2.136;2024-01-10T07:18:40;102251.88;;;24.29;13.07
61086;BME280;46967;48.876;2.136;2024-01-10T07:21:06;102249.34;;;24.27;12.98
61086;BME280;46967;48.876;2.136;2024-01-10T07:23:31;102254.09;;;24.22;13.25
61086;BME280;46967;48.876;2.136;2024-01-10T07:25:57;102252.97;;;24.12;13.19
61086;BME280;46967;48.876;2.136;2024-01-10T07:28:22;102257.66;;;23.94;13.26
61086;BME280;46967;48.876;2.136;2024-01-10T07:30:48;102256.56;;;24.11;13.26
61086;BME280;46967;48.876;2.136;2024-01-10T07:33:13;102265.16;;;24.29;13.05
61086;BME280;46967;48.876;2.136;2024-01-10T07:35:39;102263.69;;;24.10;13.18
61086;BME280;46967;48.876;2.136;2024-01-10T07:38:05;102255.09;;;24.34;12.99
61086;BME280;46967;48.876;2.136;2024-01-10T07:40:33;102268.09;;;24.51;13.26
61086;BME280;46967;48.876;2.136;2024-01-10T07:42:59;102266.06;;;24.55;13.14
61086;BME280;46967;48.876;2.136;2024-01-10T07:45:24;102268.38;;;24.74;13.02
61086;BME280;46967;48.876;2.136;2024-01-10T07:47:50;102269.66;;;24.68;12.81
61086;BME280;46967;48.876;2.136;2024-01-10T07:50:15;102266.59;;;24.74;12.80
61086;BME280;46967;48.876;2.136;2024-01-10T07:52:41;102267.88;;;24.82;13.08
61086;BME280;46967;48.876;2.136;2024-01-10T07:55:07;102261.13;;;24.36;13.07
61086;BME280;46967;48.876;2.136;2024-01-10T07:57:33;102275.56;;;24.59;13.08
61086;BME280;46967;48.876;2.136;2024-01-10T07:59:59;102271.78;;;24.49;12.95
61086;BME280;46967;48.876;2.136;2024-01-10T08:02:24;102274.00;;;24.42;12.66
61086;BME280;46967;48.876;2.136;2024-01-10T08:04:50;102269.09;;;24.36;12.83
61086;BME280;46967;48.876;2.136;2024-01-10T08:07:16;102275.91;;;24.13;13.15
61086;BME280;46967;48.876;2.136;2024-01-10T08:09:41;102272.78;;;23.77;12.96
61086;BME280;46967;48.876;2.136;2024-01-10T08:12:07;102279.03;;;24.05;12.90
61086;BME280;46967;48.876;2.136;2024-01-10T08:14:33;102278.91;;;24.48;12.68
61086;BME280;46967;48.876;2.136;2024-01-10T08:16:58;102275.25;;;24.36;12.84
61086;BME280;46967;48.876;2.136;2024-01-10T08:19:24;102277.97;;;24.49;12.72
61086;BME280;46967;48.876;2.136;2024-01-10T08:21:53;102273.78;;;24.45;12.73
61086;BME280;46967;48.876;2.136;2024-01-10T08:24:19;102288.09;;;24.57;12.54
61086;BME280;46967;48.876;2.136;2024-01-10T08:26:46;102280.69;;;24.62;12.44
61086;BME280;46967;48.876;2.136;2024-01-10T08:29:11;102280.59;;;24.76;12.53
61086;BME280;46967;48.876;2.136;2024-01-10T08:31:37;102281.25;;;24.80;12.57
61086;BME280;46967;48.876;2.136;2024-01-10T08:34:02;102278.84;;;24.35;12.73
61086;BME280;46967;48.876;2.136;2024-01-10T08:36:28;102279.75;;;24.49;12.77
61086;BME280;46967;48.876;2.136;2024-01-10T08:38:53;102288.88;;;24.17;13.09
61086;BME280;46967;48.876;2.136;2024-01-10T08:41:18;102282.59;;;24.60;12.77
61086;BME280;46967;48.876;2.136;2024-01-10T08:43:46;102286.66;;;24.51;12.88
61086;BME280;46967;48.876;2.136;2024-01-10T08:46:11;102284.94;;;24.50;12.63
61086;BME280;46967;48.876;2.136;2024-01-10T08:48:37;102285.97;;;24.62;12.98
61086;BME280;46967;48.876;2.136;2024-01-10T08:51:02;102284.97;;;24.77;12.55
61086;BME280;46967;48.876;2.136;2024-01-10T08:53:28;102294.81;;;24.75;12.83
61086;BME280;46967;48.876;2.136;2024-01-10T08:55:53;102294.88;;;24.61;13.07
61086;BME280;46967;48.876;2.136;2024-01-10T08:58:19;102285.56;;;24.41;13.03
61086;BME280;46967;48.876;2.136;2024-01-10T09:00:44;102295.59;;;24.09;13.18
61086;BME280;46967;48.876;2.136;2024-01-10T09:03:09;102286.75;;;24.50;13.09
61086;BME280;46967;48.876;2.136;2024-01-10T09:05:35;102286.53;;;24.67;12.88
61086;BME280;46967;48.876;2.136;2024-01-10T09:08:00;102289.16;;;24.40;13.31
61086;BME280;46967;48.876;2.136;2024-01-10T09:10:25;102298.50;;;24.46;13.20
61086;BME280;46967;48.876;2.136;2024-01-10T09:12:53;102297.50;;;24.88;12.88
61086;BME280;46967;48.876;2.136;2024-01-10T09:15:18;102299.72;;;24.82;13.06
61086;BME280;46967;48.876;2.136;2024-01-10T09:17:44;102296.88;;;24.30;13.06
61086;BME280;46967;48.876;2.136;2024-01-10T09:20:10;102296.03;;;24.15;13.16
61086;BME280;46967;48.876;2.136;2024-01-10T09:22:37;102307.63;;;24.41;12.88
61086;BME280;46967;48.876;2.136;2024-01-10T09:25:04;102309.94;;;24.33;13.40
61086;BME280;46967;48.876;2.136;2024-01-10T09:27:33;102313.69;;;24.44;13.28
61086;BME280;46967;48.876;2.136;2024-01-10T09:29:59;102313.69;;;24.44;13.27
61086;BME280;46967;48.876;2.136;2024-01-10T09:32:27;102306.56;;;24.58;13.10
61086;BME280;46967;48.876;2.136;2024-01-10T09:34:52;102300.19;;;24.61;13.28
61086;BME280;46967;48.876;2.136;2024-01-10T09:37:17;102292.56;;;24.69;12.93
61086;BME280;46967;48.876;2.136;2024-01-10T09:39:43;102308.13;;;24.88;12.92
61086;BME280;46967;48.876;2.136;2024-01-10T09:42:08;102312.91;;;24.96;13.07
61086;BME280;46967;48.876;2.136;2024-01-10T09:44:33;102306.22;;;24.90;12.83
61086;BME280;46967;48.876;2.136;2024-01-10T09:47:00;102313.31;;;24.90;12.88
61086;BME280;46967;48.876;2.136;2024-01-10T09:49:25;102315.78;;;24.93;12.77
61086;BME280;46967;48.876;2.136;2024-01-10T09:51:57;102310.44;;;24.26;13.15
61086;BME280;46967;48.876;2.136;2024-01-10T09:54:25;102319.88;;;24.30;13.18
61086;BME280;46967;48.876;2.136;2024-01-10T09:56:51;102315.75;;;24.53;12.86
61086;BME280;46967;48.876;2.136;2024-01-10T09:59:16;102324.72;;;24.23;13.12
61086;BME280;46967;48.876;2.136;2024-01-10T10:01:42;102308.50;;;24.69;13.22
61086;BME280;46967;48.876;2.136;2024-01-10T10:04:11;102308.94;;;24.63;13.11
61086;BME280;46967;48.876;2.136;2024-01-10T10:06:37;102324.47;;;24.82;12.99
61086;BME280;46967;48.876;2.136;2024-01-10T10:09:02;102318.13;;;25.10;12.71
61086;BME280;46967;48.876;2.136;2024-01-10T10:11:27;102319.13;;;24.55;12.86
61086;BME280;46967;48.876;2.136;2024-01-10T10:13:53;102316.66;;;24.66;12.52
61086;BME280;46967;48.876;2.136;2024-01-10T10:16:25;102321.38;;;24.88;12.50
61086;BME280;46967;48.876;2.136;2024-01-10T10:18:51;102315.19;;;25.15;12.89
61086;BME280;46967;48.876;2.136;2024-01-10T10:21:19;102308.69;;;25.06;12.52
61086;BME280;46967;48.876;2.136;2024-01-10T10:23:59;102300.84;;;25.05;12.64
61086;BME280;46967;48.876;2.136;2024-01-10T10:26:26;102308.28;;;25.25;12.19
61086;BME280;46967;48.876;2.136;2024-01-10T10:28:52;102308.47;;;24.97;12.42
61086;BME280;46967;48.876;2.136;2024-01-10T10:31:18;102303.38;;;24.93;12.81
61086;BME280;46967;48.876;2.136;2024-01-10T10:33:44;102311.06;;;25.24;12.48
61086;BME280;46967;48.876;2.136;2024-01-10T10:36:10;102300.88;;;25.43;12.25
61086;BME280;46967;48.876;2.136;2024-01-10T10:38:36;102301.81;;;25.29;12.38
61086;BME280;46967;48.876;2.136;2024-01-10T10:41:07;102302.31;;;25.22;12.30
61086;BME280;46967;48.876;2.136;2024-01-10T10:43:36;102298.31;;;25.55;12.24
61086;BME280;46967;48.876;2.136;2024-01-10T10:46:04;102290.13;;;25.58;12.07
61086;BME280;46967;48.876;2.136;2024-01-10T10:48:32;102293.41;;;25.23;12.43
61086;BME280;46967;48.876;2.136;2024-01-10T10:51:09;102294.19;;;25.51;11.97
61086;BME280;46967;48.876;2.136;2024-01-10T10:53:36;102286.56;;;24.93;12.34
61086;BME280;46967;48.876;2.136;2024-01-10T10:56:03;102288.63;;;25.15;12.46
61086;BME280;46967;48.876;2.136;2024-01-10T10:58:32;102288.97;;;25.62;12.04
61086;BME280;46967;48.876;2.136;2024-01-10T11:00:59;102284.91;;;25.56;11.90
61086;BME280;46967;48.876;2.136;2024-01-10T11:03:25;102282.59;;;25.39;12.04
61086;BME280;46967;48.876;2.136;2024-01-10T11:05:52;102282.59;;;25.39;12.04
61086;BME280;46967;48.876;2.136;2024-01-10T11:08:19;102281.75;;;25.38;12.16
61086;BME280;46967;48.876;2.136;2024-01-10T11:10:46;102279.78;;;25.66;11.96
61086;BME280;46967;48.876;2.136;2024-01-10T11:13:37;102280.03;;;25.76;12.00
61086;BME280;46967;48.876;2.136;2024-01-10T11:16:22;102267.28;;;25.55;11.99
61086;BME280;46967;48.876;2.136;2024-01-10T11:21:51;102273.84;;;25.75;12.36
61086;BME280;46967;48.876;2.136;2024-01-10T11:24:21;102272.03;;;25.76;12.36
61086;BME280;46967;48.876;2.136;2024-01-10T11:26:47;102266.81;;;25.87;11.98
61086;BME280;46967;48.876;2.136;2024-01-10T11:29:14;102273.00;;;25.75;12.00
61086;BME280;46967;48.876;2.136;2024-01-10T11:31:40;102267.56;;;25.76;12.14
61086;BME280;46967;48.876;2.136;2024-01-10T11:34:05;102271.81;;;25.66;12.14
61086;BME280;46967;48.876;2.136;2024-01-10T11:36:31;102268.72;;;25.72;12.17
61086;BME280;46967;48.876;2.136;2024-01-10T11:39:02;102264.88;;;25.89;12.09
61086;BME280;46967;48.876;2.136;2024-01-10T11:41:31;102257.84;;;26.01;11.95
61086;BME280;46967;48.876;2.136;2024-01-10T11:46:37;102258.69;;;26.01;11.63
61086;BME280;46967;48.876;2.136;2024-01-10T11:49:03;102256.09;;;25.63;12.02
61086;BME280;46967;48.876;2.136;2024-01-10T11:51:29;102245.56;;;25.74;11.97
61086;BME280;46967;48.876;2.136;2024-01-10T11:53:55;102251.75;;;25.62;11.99
61086;BME280;46967;48.876;2.136;2024-01-10T11:56:22;102254.22;;;26.02;11.73
61086;BME280;46967;48.876;2.136;2024-01-10T11:59:03;102255.47;;;25.96;11.82
61086;BME280;46967;48.876;2.136;2024-01-10T12:01:29;102256.94;;;26.37;12.08
61086;BME280;46967;48.876;2.136;2024-01-10T12:03:55;102251.50;;;26.39;11.82
61086;BME280;46967;48.876;2.136;2024-01-10T12:06:21;102251.63;;;26.13;11.70
61086;BME280;46967;48.876;2.136;2024-01-10T12:08:48;102245.97;;;26.18;11.78
61086;BME280;46967;48.876;2.136;2024-01-10T12:11:13;102241.19;;;26.34;11.60
61086;BME280;46967;48.876;2.136;2024-01-10T12:13:38;102243.34;;;26.29;11.52
61086;BME280;46967;48.876;2.136;2024-01-10T12:16:04;102240.25;;;26.35;11.59
61086;BME280;46967;48.876;2.136;2024-01-10T12:18:30;102229.16;;;26.17;11.62
61086;BME280;46967;48.876;2.136;2024-01-10T12:20:55;102237.59;;;25.74;11.95
61086;BME280;46967;48.876;2.136;2024-01-10T12:23:21;102232.78;;;26.16;12.17
61086;BME280;46967;48.876;2.136;2024-01-10T12:25:48;102228.88;;;26.33;11.91
61086;BME280;46967;48.876;2.136;2024-01-10T12:28:16;102222.22;;;26.39;11.87
61086;BME280;46967;48.876;2.136;2024-01-10T12:30:42;102220.88;;;26.33;11.74
61086;BME280;46967;48.876;2.136;2024-01-10T12:33:10;102220.31;;;26.17;11.92
61086;BME280;46967;48.876;2.136;2024-01-10T12:35:36;102218.47;;;26.06;11.72
61086;BME280;46967;48.876;2.136;2024-01-10T12:38:02;102218.31;;;26.20;11.59
61086;BME280;46967;48.876;2.136;2024-01-10T12:40:28;102210.59;;;26.29;11.73
61086;BME280;46967;48.876;2.136;2024-01-10T12:43:06;102206.97;;;26.30;11.42
61086;BME280;46967;48.876;2.136;2024-01-10T12:45:32;102205.41;;;26.38;11.75
61086;BME280;46967;48.876;2.136;2024-01-10T12:47:58;102215.00;;;26.41;11.76
61086;BME280;46967;48.876;2.136;2024-01-10T12:50:23;102207.53;;;26.22;11.64